Time;durP1;ratioP1;P1;durP2;ratioP2;P2;SDS_P1;SDS_P2;PMS_P1;PMS_P2;Temp;Humidity;BMP_temperature;BMP_pressure;BME280_temperature;BME280_humidity;BME280_pressure;Samples;Min_cycle;Max_cycle;Signal;HPM_P1;HPM_P2
2021/07/25 00:02:02;;;;;;;99.07;53.00;;;;;;;16.69;90.35;100945.84;5072840;28;20199;-71
2021/07/25 00:04:29;;;;;;;99.15;52.55;;;;;;;16.67;90.25;100936.22;5072415;28;20421;-65
2021/07/25 00:06:55;;;;;;;115.80;59.20;;;;;;;16.67;90.81;100928.19;5072799;28;20037;-65
2021/07/25 00:09:20;;;;;;;117.38;59.50;;;;;;;16.68;90.53;100928.06;5072551;28;20047;-64
2021/07/25 00:11:45;;;;;;;119.07;55.65;;;;;;;16.71;90.93;100927.00;5072824;28;20064;-65
2021/07/25 00:14:11;;;;;;;131.18;63.67;;;;;;;16.79;91.35;100926.47;5073125;28;20484;-64
2021/07/25 00:16:36;;;;;;;117.43;58.65;;;;;;;16.84;90.77;100927.00;5072220;28;20115;-70
2021/07/25 00:19:01;;;;;;;124.07;62.28;;;;;;;16.83;90.55;100928.84;5072030;28;20051;-65
2021/07/25 00:21:27;;;;;;;118.82;58.80;;;;;;;16.84;90.69;100937.69;5072302;28;20477;-65
2021/07/25 00:23:54;;;;;;;113.55;59.60;;;;;;;16.86;90.44;100930.44;5072325;28;20075;-65
2021/07/25 00:26:25;;;;;;;110.43;56.42;;;;;;;16.85;90.25;100936.75;5072410;28;20059;-64
2021/07/25 00:28:51;;;;;;;114.78;57.30;;;;;;;16.86;90.79;100935.78;5072766;28;20029;-65
2021/07/25 00:31:17;;;;;;;120.75;60.70;;;;;;;16.99;91.09;100941.16;5054598;28;20107;-64
2021/07/25 00:33:43;;;;;;;109.57;57.33;;;;;;;17.11;90.92;100942.97;5072675;28;20028;-65
2021/07/25 00:36:09;;;;;;;112.65;57.40;;;;;;;17.18;90.91;100941.56;5072009;28;20024;-65
2021/07/25 00:38:34;;;;;;;105.22;55.05;;;;;;;17.25;90.86;100935.78;5072321;28;20032;-69
2021/07/25 00:41:09;;;;;;;91.28;51.10;;;;;;;17.31;90.44;100938.03;5071632;28;20017;-65
2021/07/25 00:43:34;;;;;;;95.78;52.45;;;;;;;17.39;89.79;100941.00;5071594;28;20120;-66
2021/07/25 00:46:01;;;;;;;86.00;50.33;;;;;;;17.42;89.53;100935.44;5071959;28;20035;-67
2021/07/25 00:48:26;;;;;;;92.32;53.38;;;;;;;17.40;89.71;100932.00;5052672;28;20120;-70
2021/07/25 00:50:53;;;;;;;97.18;54.05;;;;;;;17.40;89.77;100928.47;5057833;28;20477;-65
2021/07/25 00:53:20;;;;;;;91.47;51.25;;;;;;;17.43;89.38;100929.13;5071999;28;20036;-65
2021/07/25 00:55:47;;;;;;;104.13;56.65;;;;;;;17.41;89.25;100930.19;5071771;28;20029;-65
2021/07/25 00:58:13;;;;;;;102.03;53.67;;;;;;;17.38;89.21;100922.38;5071461;28;20470;-65
2021/07/25 01:00:39;;;;;;;96.35;52.58;;;;;;;17.36;89.56;100914.44;5071765;28;20024;-65
2021/07/25 01:03:32;;;;;;;87.90;48.95;;;;;;;17.37;89.30;100910.81;5071296;28;20019;-65
2021/07/25 01:06:01;;;;;;;93.70;52.80;;;;;;;17.40;89.23;100912.41;5071808;28;20042;-70
2021/07/25 01:08:50;;;;;;;98.05;54.10;;;;;;;17.36;89.35;100917.13;5071306;28;20024;-66
2021/07/25 01:11:16;;;;;;;98.07;54.28;;;;;;;17.31;89.62;100911.25;5071799;28;20490;-72
2021/07/25 01:13:45;;;;;;;100.50;54.75;;;;;;;17.30;89.77;100921.13;5071249;28;20025;-71
2021/07/25 01:16:12;;;;;;;93.35;52.47;;;;;;;17.29;89.46;100914.06;5071537;28;20408;-65
2021/07/25 01:18:48;;;;;;;101.05;55.55;;;;;;;17.29;89.73;100910.50;5070725;28;20029;-65
2021/07/25 01:21:14;;;;;;;99.00;55.15;;;;;;;17.27;nan;100907.94;5051623;28;20040;-65
2021/07/25 01:23:40;;;;;;;95.35;53.25;;;;;;;17.28;90.19;100911.50;5064069;28;20115;-68
2021/07/25 01:26:08;;;;;;;98.72;53.97;;;;;;;17.29;89.68;100910.50;5071806;28;20039;-71
2021/07/25 01:28:35;;;;;;;101.50;55.00;;;;;;;17.28;89.81;100906.97;5071778;28;20082;-72
2021/07/25 01:31:10;;;;;;;105.10;56.70;;;;;;;17.29;89.85;100905.16;5071477;28;20097;-66
2021/07/25 01:33:36;;;;;;;98.30;53.47;;;;;;;17.31;89.90;100898.72;5071943;28;20028;-71
2021/07/25 01:36:03;;;;;;;100.68;57.40;;;;;;;17.32;89.79;100896.91;5071582;28;20091;-65
2021/07/25 01:38:28;;;;;;;113.20;60.15;;;;;;;17.32;89.55;100900.44;5070964;28;20451;-64
2021/07/25 01:41:11;;;;;;;108.85;58.88;;;;;;;17.29;89.76;100905.16;5071239;28;20104;-65
2021/07/25 01:43:38;;;;;;;99.93;53.88;;;;;;;17.27;89.89;100909.78;5071953;28;20048;-65
2021/07/25 01:46:04;;;;;;;108.47;57.08;;;;;;;17.24;89.48;100915.31;5072181;28;20039;-67
2021/07/25 01:48:29;;;;;;;101.78;55.75;;;;;;;17.18;89.86;100913.97;5071739;28;20124;-68
2021/07/25 01:50:55;;;;;;;103.50;55.83;;;;;;;17.16;89.78;100919.44;5071488;28;20027;-65
2021/07/25 01:53:20;;;;;;;98.15;53.53;;;;;;;17.19;89.77;100921.03;5072145;28;20052;-65
2021/07/25 01:55:46;;;;;;;100.90;53.85;;;;;;;17.15;89.61;100919.53;5072245;28;20028;-66
2021/07/25 01:58:11;;;;;;;92.85;50.42;;;;;;;17.13;89.27;100921.47;5071909;28;20470;-65
2021/07/25 02:00:37;;;;;;;94.60;51.95;;;;;;;17.15;89.60;100920.38;5071797;28;20056;-71
2021/07/25 02:03:03;;;;;;;109.05;57.63;;;;;;;17.10;89.68;100919.03;5071504;28;20028;-66
2021/07/25 02:05:28;;;;;;;103.88;55.53;;;;;;;17.06;90.00;100907.69;5072102;28;20038;-71
2021/07/25 02:07:53;;;;;;;90.70;49.45;;;;;;;17.07;90.11;100917.38;5072109;28;20489;-66
2021/07/25 02:10:19;;;;;;;107.50;57.13;;;;;;;17.03;89.92;100900.72;5071399;28;20055;-65
2021/07/25 02:12:44;;;;;;;101.15;53.35;;;;;;;17.01;89.97;100893.78;5071600;28;20032;-72
2021/07/25 02:15:10;;;;;;;94.55;50.40;;;;;;;17.00;90.10;100900.09;5071947;28;20040;-65
2021/07/25 02:17:35;;;;;;;100.70;53.40;;;;;;;17.03;89.91;100900.72;5071689;28;20024;-70
2021/07/25 02:20:01;;;;;;;115.40;59.83;;;;;;;17.01;89.94;100891.09;5071451;28;20033;-64
2021/07/25 02:22:26;;;;;;;105.10;53.40;;;;;;;16.99;90.03;100882.31;5071013;28;20024;-66
2021/07/25 02:24:51;;;;;;;107.72;56.72;;;;;;;16.95;90.12;100878.16;5071673;28;20027;-67
2021/07/25 02:27:17;;;;;;;106.75;56.63;;;;;;;16.94;90.05;100885.31;5071767;28;20068;-65
2021/07/25 02:29:42;;;;;;;111.47;58.20;;;;;;;16.91;90.43;100882.88;5071776;28;20020;-71
2021/07/25 02:32:07;;;;;;;117.72;57.78;;;;;;;16.87;90.59;100882.19;5071245;28;20028;-67
2021/07/25 02:34:33;;;;;;;105.93;53.28;;;;;;;16.88;90.51;100883.06;5070722;28;20032;-70
2021/07/25 02:36:59;;;;;;;108.30;56.55;;;;;;;16.94;90.57;100879.97;5071598;28;20020;-69
2021/07/25 02:39:25;;;;;;;100.03;50.70;;;;;;;16.95;90.84;100873.66;5071527;28;20383;-67
2021/07/25 02:41:51;;;;;;;120.95;59.75;;;;;;;16.95;90.74;100865.63;5071403;28;20021;-67
2021/07/25 02:44:16;;;;;;;107.32;55.40;;;;;;;16.97;90.92;100866.38;5075124;28;20047;-72
2021/07/25 02:46:42;;;;;;;122.05;60.58;;;;;;;16.98;90.60;100864.53;5075300;28;20023;-65
2021/07/25 02:49:07;;;;;;;93.22;50.35;;;;;;;16.97;90.45;100863.69;5075094;28;20021;-69
2021/07/25 02:51:32;;;;;;;94.95;52.70;;;;;;;16.97;90.44;100861.03;5074522;28;20666;-63
2021/07/25 02:53:58;;;;;;;97.28;53.47;;;;;;;16.94;90.19;100852.38;5075000;28;20024;-65
2021/07/25 02:56:23;;;;;;;100.93;54.08;;;;;;;16.90;90.54;100854.38;5075082;28;20036;-65
2021/07/25 02:58:48;;;;;;;111.60;56.33;;;;;;;16.88;90.19;100856.31;5074682;28;20113;-64
2021/07/25 03:01:15;;;;;;;109.20;56.30;;;;;;;16.91;90.72;100855.28;5074920;28;20032;-65
2021/07/25 03:03:40;;;;;;;97.38;52.35;;;;;;;16.99;90.54;100853.72;5074550;28;20153;-65
2021/07/25 03:06:06;;;;;;;92.50;48.63;;;;;;;17.04;90.22;100856.09;5074026;28;20032;-65
2021/07/25 03:08:31;;;;;;;94.43;52.08;;;;;;;17.05;90.14;100855.13;5074635;28;20044;-65
2021/07/25 03:10:56;;;;;;;98.47;53.08;;;;;;;17.03;89.73;100852.56;5074913;28;20044;-65
2021/07/25 03:13:22;;;;;;;82.80;47.83;;;;;;;17.03;90.15;100865.94;5074475;28;20436;-64
2021/07/25 03:15:47;;;;;;;78.70;47.28;;;;;;;17.06;89.89;100866.66;5074156;28;20033;-71
2021/07/25 03:18:12;;;;;;;76.82;44.28;;;;;;;17.09;89.75;100866.47;5074228;28;20035;-65
2021/07/25 03:20:37;;;;;;;71.88;43.80;;;;;;;17.10;89.75;100871.69;5074103;28;20115;-67
2021/07/25 03:23:03;;;;;;;72.97;44.47;;;;;;;17.10;89.50;100869.03;5074001;28;20044;-63
2021/07/25 03:25:28;;;;;;;72.30;41.83;;;;;;;17.12;89.46;100871.59;5074720;28;20029;-65
2021/07/25 03:27:54;;;;;;;68.22;40.50;;;;;;;17.12;89.06;100874.25;5074383;28;20031;-65
2021/07/25 03:30:19;;;;;;;62.30;38.20;;;;;;;17.10;89.11;100870.84;5074449;28;20472;-69
2021/07/25 03:32:45;;;;;;;63.63;37.45;;;;;;;17.11;89.09;100864.53;5074211;28;20043;-64
2021/07/25 03:35:10;;;;;;;60.83;35.88;;;;;;;17.11;88.69;100870.75;5073547;28;20037;-70
2021/07/25 03:37:40;;;;;;;49.88;32.53;;;;;;;17.12;88.13;100875.13;5073636;28;20028;-69
2021/07/25 03:40:07;;;;;;;47.97;31.23;;;;;;;17.11;88.37;100872.53;5074042;28;20374;-64
2021/07/25 03:42:32;;;;;;;51.45;31.52;;;;;;;17.06;88.13;100866.66;5073622;28;20045;-65
2021/07/25 03:44:57;;;;;;;49.13;32.10;;;;;;;17.02;87.97;100871.38;5073702;28;20398;-65
2021/07/25 03:47:22;;;;;;;44.45;29.65;;;;;;;17.00;87.76;100859.94;5074187;28;20039;-66
2021/07/25 03:49:48;;;;;;;50.40;29.50;;;;;;;17.01;87.79;100864.34;5073608;28;20036;-65
2021/07/25 03:52:13;;;;;;;41.10;26.00;;;;;;;16.93;87.81;100856.88;5073530;28;20111;-64
2021/07/25 03:54:42;;;;;;;49.42;30.58;;;;;;;16.90;87.64;100850.84;5073061;28;20473;-65
2021/07/25 03:57:08;;;;;;;46.10;29.20;;;;;;;16.86;87.79;100860.91;5073883;28;20028;-71
2021/07/25 03:59:34;;;;;;;46.35;29.80;;;;;;;16.82;88.58;100852.25;5073476;28;20103;-71
2021/07/25 04:01:59;;;;;;;45.20;28.80;;;;;;;16.80;88.26;100850.63;5073800;28;20099;-71
2021/07/25 04:04:24;;;;;;;43.33;27.80;;;;;;;16.80;88.32;100848.84;5073669;28;20531;-66
2021/07/25 04:06:50;;;;;;;38.30;25.50;;;;;;;16.84;88.31;100852.13;5072957;28;20033;-68
2021/07/25 04:09:15;;;;;;;42.45;28.00;;;;;;;16.84;87.93;100841.44;5073041;28;20719;-72
2021/07/25 04:11:40;;;;;;;38.58;23.88;;;;;;;16.84;88.20;100844.97;5073403;28;20035;-65
2021/07/25 04:14:06;;;;;;;44.53;27.13;;;;;;;16.85;87.93;100846.69;5073423;28;20016;-64
2021/07/25 04:16:31;;;;;;;40.35;25.73;;;;;;;16.86;88.40;100837.69;5072843;28;20028;-65
2021/07/25 04:18:57;;;;;;;42.28;26.38;;;;;;;16.90;88.29;100835.63;5073179;28;20025;-66
2021/07/25 04:21:22;;;;;;;34.33;23.42;;;;;;;16.96;88.15;100832.56;5073070;28;20032;-65
2021/07/25 04:23:48;;;;;;;34.70;22.48;;;;;;;17.01;87.15;100835.75;5073221;28;20048;-64
2021/07/25 04:26:13;;;;;;;34.17;22.90;;;;;;;17.06;87.10;100843.47;5072939;28;20035;-64
2021/07/25 04:28:39;;;;;;;33.42;22.90;;;;;;;17.08;86.99;100846.88;5073151;28;20474;-72
2021/07/25 04:31:05;;;;;;;33.38;21.65;;;;;;;17.09;86.67;100837.03;5072763;28;20039;-65
2021/07/25 04:33:32;;;;;;;34.50;22.92;;;;;;;17.09;87.20;100845.06;5073364;28;20028;-66
2021/07/25 04:35:58;;;;;;;33.33;21.20;;;;;;;17.10;86.94;100844.94;5072700;28;20056;-65
2021/07/25 04:38:23;;;;;;;30.75;21.20;;;;;;;17.14;86.13;100846.44;5072796;28;20070;-65
2021/07/25 04:40:56;;;;;;;34.25;20.98;;;;;;;17.15;86.39;100841.94;5072651;28;20025;-70
2021/07/25 04:43:22;;;;;;;35.88;21.52;;;;;;;17.18;86.52;100844.38;5072714;28;20059;-71
2021/07/25 04:46:09;;;;;;;32.63;21.15;;;;;;;17.16;86.55;100843.63;5072961;28;20040;-65
2021/07/25 04:48:43;;;;;;;30.00;19.85;;;;;;;17.18;86.14;100833.69;5052840;28;20132;-65
2021/07/25 04:51:10;;;;;;;27.63;18.60;;;;;;;17.23;86.49;100844.91;5052719;28;20029;-71
2021/07/25 04:53:41;;;;;;;24.65;17.88;;;;;;;17.26;85.11;100846.50;5070299;28;20025;-66
2021/07/25 04:56:09;;;;;;;30.55;17.27;;;;;;;17.30;85.37;100846.19;5072814;28;20036;-65
2021/07/25 04:58:41;;;;;;;26.77;16.80;;;;;;;17.32;84.79;100856.75;5072307;28;20488;-64
2021/07/25 05:01:07;;;;;;;23.48;15.32;;;;;;;17.36;84.98;100850.22;5051167;28;20033;-65
2021/07/25 05:03:33;;;;;;;22.00;15.25;;;;;;;17.40;84.76;100854.38;5064783;28;20024;-65
2021/07/25 05:05:59;;;;;;;21.90;14.63;;;;;;;17.46;84.15;100850.41;5071519;28;20071;-66
2021/07/25 05:08:24;;;;;;;22.65;14.48;;;;;;;17.53;83.41;100846.28;5072238;28;20036;-72
2021/07/25 05:10:56;;;;;;;17.50;12.38;;;;;;;17.57;83.06;100853.16;5072785;28;20115;-65
2021/07/25 05:13:25;;;;;;;15.32;11.02;;;;;;;17.58;82.94;100852.16;5072005;28;20017;-65
2021/07/25 05:15:51;;;;;;;16.63;11.13;;;;;;;17.63;82.81;100859.84;5053981;28;20382;-65
2021/07/25 05:18:27;;;;;;;16.23;11.02;;;;;;;17.60;83.02;100857.41;5072206;28;20024;-65
2021/07/25 05:21:22;;;;;;;19.98;12.57;;;;;;;17.60;82.69;100860.94;5072492;28;20028;-66
2021/07/25 05:23:52;;;;;;;16.00;10.38;;;;;;;17.63;82.29;100870.56;5071964;28;20025;-72
2021/07/25 05:26:23;;;;;;;15.48;10.65;;;;;;;17.66;82.05;100870.31;5072426;28;20025;-66
2021/07/25 05:28:52;;;;;;;17.92;10.45;;;;;;;17.74;82.34;100867.94;5071791;28;20155;-65
2021/07/25 05:31:17;;;;;;;18.02;10.73;;;;;;;17.84;81.72;100866.28;5072318;28;20486;-72
2021/07/25 05:33:43;;;;;;;14.43;9.75;;;;;;;17.91;81.00;100860.47;5072251;28;20033;-67
2021/07/25 05:36:08;;;;;;;15.27;10.40;;;;;;;17.90;81.54;100859.59;5071971;28;20064;-65
2021/07/25 05:38:33;;;;;;;16.10;10.10;;;;;;;18.01;81.39;100866.88;5071746;28;20037;-71
2021/07/25 05:40:59;;;;;;;14.20;9.55;;;;;;;18.12;80.90;100871.41;5072177;28;20040;-68
2021/07/25 05:43:24;;;;;;;13.90;9.90;;;;;;;18.12;80.41;100864.22;5069941;28;20046;-66
2021/07/25 05:45:49;;;;;;;14.30;10.00;;;;;;;18.18;80.82;100868.25;5071637;28;20064;-67
2021/07/25 05:48:14;;;;;;;13.73;9.45;;;;;;;18.26;80.67;100863.16;5072479;28;20020;-66
2021/07/25 05:50:40;;;;;;;14.13;9.57;;;;;;;18.29;80.66;100860.25;5072012;28;20039;-68
2021/07/25 05:53:05;;;;;;;18.45;10.10;;;;;;;18.41;80.10;100871.00;5053432;28;20082;-65
2021/07/25 05:55:34;;;;;;;15.65;10.52;;;;;;;18.53;79.35;100869.19;5071255;28;20028;-65
2021/07/25 05:58:00;;;;;;;15.75;9.13;;;;;;;18.58;78.95;100861.63;5071320;28;20032;-67
2021/07/25 06:00:26;;;;;;;16.88;10.45;;;;;;;18.68;79.59;100873.34;5065642;28;20159;-69
2021/07/25 06:02:52;;;;;;;16.17;11.00;;;;;;;18.83;77.52;100863.22;5072181;28;20471;-66
2021/07/25 06:05:18;;;;;;;16.52;11.25;;;;;;;18.91;78.03;100871.53;5072073;28;20030;-70
2021/07/25 06:07:43;;;;;;;16.23;10.70;;;;;;;18.98;77.15;100870.09;5047467;28;20037;-65
2021/07/25 06:10:09;;;;;;;16.05;11.07;;;;;;;19.07;77.97;100867.66;5059031;28;20032;-68
2021/07/25 06:12:36;;;;;;;16.88;10.93;;;;;;;19.13;77.59;100873.38;5064791;28;20113;-66
2021/07/25 06:15:01;;;;;;;16.33;11.23;;;;;;;19.31;76.09;100870.19;5070434;28;20099;-70
2021/07/25 06:17:27;;;;;;;19.42;11.32;;;;;;;19.34;77.11;100869.09;5074954;28;20074;-68
2021/07/25 06:19:52;;;;;;;16.63;10.50;;;;;;;19.45;75.50;100872.59;5076049;28;20024;-71
2021/07/25 06:22:17;;;;;;;17.83;10.52;;;;;;;19.47;75.93;100873.28;5075406;28;20047;-64
2021/07/25 06:24:43;;;;;;;18.10;11.88;;;;;;;19.47;76.26;100869.78;5075801;28;20112;-70
2021/07/25 06:27:08;;;;;;;17.90;11.50;;;;;;;19.62;75.48;100876.56;5074072;28;20029;-70
2021/07/25 06:29:33;;;;;;;15.57;11.48;;;;;;;19.63;75.13;100869.38;5075745;28;20016;-70
2021/07/25 06:31:58;;;;;;;14.77;11.20;;;;;;;19.62;75.42;100862.28;5075031;28;20031;-70
2021/07/25 06:34:24;;;;;;;18.80;11.73;;;;;;;19.62;75.02;100870.34;5068996;28;20025;-65
2021/07/25 06:36:49;;;;;;;21.65;12.45;;;;;;;19.58;75.85;100864.38;5054869;28;20029;-68
2021/07/25 06:39:14;;;;;;;19.02;12.95;;;;;;;19.64;75.17;100858.50;5072895;28;20119;-68
2021/07/25 06:41:39;;;;;;;20.05;12.70;;;;;;;19.55;74.29;100861.91;5074746;28;20028;-70
2021/07/25 06:44:05;;;;;;;18.90;13.20;;;;;;;19.43;74.95;100873.69;5048552;28;20073;-71
2021/07/25 06:46:30;;;;;;;18.10;12.07;;;;;;;19.56;76.55;100870.84;5043173;28;20120;-69
2021/07/25 06:48:55;;;;;;;21.38;12.70;;;;;;;19.57;74.55;100876.09;5055122;28;20052;-71
2021/07/25 06:51:21;;;;;;;18.65;12.77;;;;;;;19.57;75.40;100864.50;5054569;28;20394;-68
2021/07/25 06:53:46;;;;;;;20.98;12.38;;;;;;;19.56;75.70;100858.25;5054733;28;20029;-68
2021/07/25 06:56:12;;;;;;;20.02;12.98;;;;;;;19.56;75.29;100863.63;5053775;28;20100;-70
2021/07/25 06:58:38;;;;;;;20.10;12.23;;;;;;;19.64;75.65;100861.19;5053265;28;20025;-70
2021/07/25 07:01:04;;;;;;;20.88;12.88;;;;;;;19.71;74.96;100860.69;5054671;28;20029;-71
2021/07/25 07:03:30;;;;;;;19.20;12.20;;;;;;;19.73;75.33;100859.56;5049492;28;20440;-70
2021/07/25 07:05:55;;;;;;;19.17;12.90;;;;;;;19.76;75.12;100858.47;5035163;28;20025;-68
2021/07/25 07:08:22;;;;;;;17.40;11.88;;;;;;;19.80;76.16;100855.38;5047016;28;20075;-71
2021/07/25 07:10:47;;;;;;;17.98;12.77;;;;;;;19.85;75.20;100843.41;5054214;28;20100;-65
2021/07/25 07:13:15;;;;;;;20.98;12.27;;;;;;;19.97;76.59;100856.69;5054877;28;20103;-68
2021/07/25 07:15:42;;;;;;;20.98;13.07;;;;;;;20.06;75.19;100863.09;5053879;28;20112;-69
2021/07/25 07:18:08;;;;;;;18.92;12.15;;;;;;;20.06;75.13;100857.72;5053765;28;20036;-71
2021/07/25 07:20:34;;;;;;;18.67;12.48;;;;;;;20.18;75.59;100861.22;5054632;28;20029;-71
2021/07/25 07:23:03;;;;;;;19.05;11.73;;;;;;;20.38;74.80;100870.25;5053367;28;20025;-67
2021/07/25 07:25:40;;;;;;;17.52;12.32;;;;;;;20.48;73.82;100864.09;5053952;28;20052;-71
2021/07/25 07:28:06;;;;;;;19.50;11.88;;;;;;;20.60;73.50;100869.25;5052962;28;20020;-68
2021/07/25 07:30:33;;;;;;;18.63;12.05;;;;;;;20.71;73.19;100868.34;5054070;28;20086;-71
2021/07/25 07:33:09;;;;;;;21.92;12.93;;;;;;;20.76;72.87;100866.09;5054151;28;20090;-71
2021/07/25 07:35:35;;;;;;;20.73;13.25;;;;;;;20.83;72.15;100876.31;5054406;28;20073;-67
2021/07/25 07:38:00;;;;;;;16.80;11.50;;;;;;;20.91;72.54;100868.44;5049502;28;20371;-70
2021/07/25 07:40:26;;;;;;;17.65;12.38;;;;;;;20.93;72.24;100878.09;5053799;28;20050;-70
2021/07/25 07:42:51;;;;;;;18.73;12.50;;;;;;;21.00;72.39;100874.81;5056713;28;20076;-66
2021/07/25 07:45:18;;;;;;;18.63;12.55;;;;;;;21.02;73.13;100875.56;5054563;28;20043;-67
2021/07/25 07:47:44;;;;;;;16.92;11.80;;;;;;;21.20;72.47;100875.75;5072166;28;20050;-71
2021/07/25 07:50:10;;;;;;;17.52;11.90;;;;;;;21.36;71.62;100870.69;5073595;28;20035;-71
2021/07/25 07:52:36;;;;;;;20.50;12.60;;;;;;;21.55;69.78;100877.16;5071650;28;20028;-68
2021/07/25 07:55:02;;;;;;;17.27;11.52;;;;;;;21.66;69.72;100881.53;5073134;28;20149;-71
2021/07/25 07:57:28;;;;;;;18.40;12.68;;;;;;;21.70;70.03;100881.13;5073025;28;20481;-68
2021/07/25 07:59:53;;;;;;;19.98;12.05;;;;;;;21.90;69.16;100881.97;5072867;28;20047;-70
2021/07/25 08:02:18;;;;;;;15.10;10.57;;;;;;;22.09;68.61;100873.03;5073112;28;20161;-70
2021/07/25 08:04:43;;;;;;;21.25;12.75;;;;;;;22.24;66.86;100868.06;5073619;28;20097;-71
2021/07/25 08:07:09;;;;;;;16.92;11.35;;;;;;;22.34;67.37;100868.03;5072485;28;20526;-71
2021/07/25 08:09:34;;;;;;;17.40;12.02;;;;;;;22.41;66.80;100871.88;5073017;28;20028;-71
2021/07/25 08:12:01;;;;;;;18.52;11.68;;;;;;;22.39;66.15;100870.31;5067743;28;20020;-71
2021/07/25 08:14:26;;;;;;;18.08;11.07;;;;;;;22.49;66.01;100871.13;5057662;28;20081;-71
2021/07/25 08:16:52;;;;;;;15.98;10.73;;;;;;;22.69;65.28;100871.94;5060930;28;20100;-68
2021/07/25 08:19:17;;;;;;;19.33;11.38;;;;;;;22.84;65.04;100874.16;5053273;28;20033;-68
2021/07/25 08:21:43;;;;;;;15.32;10.23;;;;;;;22.96;63.70;100869.44;5052985;28;20024;-70
2021/07/25 08:24:09;;;;;;;17.35;10.40;;;;;;;22.98;63.13;100873.69;5070373;28;20063;-69
2021/07/25 08:26:35;;;;;;;16.50;10.38;;;;;;;23.16;63.39;100873.78;5072895;28;20032;-68
2021/07/25 08:29:01;;;;;;;16.52;10.20;;;;;;;23.49;62.26;100870.56;5072653;28;20028;-67
2021/07/25 08:31:27;;;;;;;17.20;10.95;;;;;;;23.76;60.74;100877.78;5072102;28;20032;-71
2021/07/25 08:33:52;;;;;;;13.45;9.95;;;;;;;23.97;60.90;100879.34;5072774;28;20397;-70
2021/07/25 08:36:18;;;;;;;14.30;10.77;;;;;;;24.16;61.40;100875.63;5072534;28;20036;-69
2021/07/25 08:38:43;;;;;;;18.13;10.65;;;;;;;24.36;59.89;100881.69;5072326;28;20028;-69
2021/07/25 08:41:35;;;;;;;14.30;10.38;;;;;;;24.62;58.72;100884.41;5072076;28;20470;-70
2021/07/25 08:44:15;;;;;;;;;;;;;;;24.56;58.40;100885.03;5072835;28;20513;-68
2021/07/25 08:46:43;;;;;;;16.77;10.77;;;;;;;24.67;58.00;100883.97;5072482;28;19921;-70
2021/07/25 08:49:16;;;;;;;18.15;11.73;;;;;;;24.77;56.90;100879.28;5072685;28;20021;-70
2021/07/25 08:51:56;;;;;;;15.50;10.25;;;;;;;24.92;56.87;100889.50;5071076;28;20124;-71
2021/07/25 08:54:23;;;;;;;15.45;11.75;;;;;;;24.88;57.23;100883.56;5052855;28;20456;-70
2021/07/25 08:56:52;;;;;;;17.23;11.30;;;;;;;24.90;57.69;100892.38;5071474;28;20104;-66
2021/07/25 08:59:18;;;;;;;15.55;10.18;;;;;;;25.38;53.89;100890.03;5072412;28;20036;-69
2021/07/25 09:01:50;;;;;;;17.25;11.23;;;;;;;25.48;54.14;100889.91;5072283;28;20051;-70
2021/07/25 09:04:16;;;;;;;19.70;14.10;;;;;;;25.27;56.35;100895.72;5072450;28;20047;-68
2021/07/25 09:06:47;;;;;;;17.33;11.73;;;;;;;24.95;55.72;100889.16;5070984;28;20037;-68
2021/07/25 09:09:14;;;;;;;18.88;12.32;;;;;;;24.73;58.60;100896.00;5071353;28;20020;-66
2021/07/25 09:11:40;;;;;;;16.60;12.38;;;;;;;24.51;57.30;100892.78;5071785;28;20029;-67
2021/07/25 09:14:06;;;;;;;16.02;11.15;;;;;;;24.44;59.04;100898.00;5071903;28;20115;-66
2021/07/25 09:16:33;;;;;;;15.98;11.25;;;;;;;24.61;56.63;100906.22;5071436;28;20059;-63
2021/07/25 09:19:00;;;;;;;16.30;10.80;;;;;;;24.67;59.08;100905.63;5072564;28;20036;-66
2021/07/25 09:21:38;;;;;;;16.17;12.32;;;;;;;24.73;56.60;100906.81;5071786;28;20064;-66
2021/07/25 09:24:24;;;;;;;16.55;10.38;;;;;;;24.57;56.13;100905.69;5071493;28;20013;-69
2021/07/25 09:26:54;;;;;;;17.35;11.57;;;;;;;24.54;58.34;100911.41;5070849;28;20585;-69
2021/07/25 09:29:22;;;;;;;18.83;12.63;;;;;;;24.55;57.23;100913.09;5072237;28;20039;-67
2021/07/25 09:31:48;;;;;;;16.52;10.93;;;;;;;24.41;56.82;100908.28;5071088;28;20039;-69
2021/07/25 09:34:35;;;;;;;17.45;11.27;;;;;;;24.38;56.97;100912.97;5071039;28;20029;-71
2021/07/25 09:37:15;;;;;;;17.50;9.43;;;;;;;24.27;56.62;100921.38;5059401;28;20032;-66
2021/07/25 09:39:43;;;;;;;16.65;10.73;;;;;;;24.26;57.17;100919.69;5052117;28;20048;-70
2021/07/25 09:42:09;;;;;;;18.15;11.82;;;;;;;24.31;57.79;100924.59;5051833;28;20026;-70
2021/07/25 09:44:56;;;;;;;16.23;11.48;;;;;;;24.63;57.55;100915.03;5069597;28;20068;-70
2021/07/25 09:47:28;;;;;;;18.80;11.35;;;;;;;25.23;56.40;100916.03;5071950;28;20032;-70
2021/07/25 09:49:55;;;;;;;14.52;10.13;;;;;;;25.71;52.04;100911.81;5058400;28;20021;-70
2021/07/25 09:52:39;;;;;;;13.25;8.82;;;;;;;25.59;52.54;100919.44;5054253;28;20475;-67
2021/07/25 09:55:08;;;;;;;13.68;9.25;;;;;;;25.06;53.42;100918.69;5055987;28;20048;-71
2021/07/25 09:57:38;;;;;;;15.65;10.73;;;;;;;25.05;56.51;100916.13;5057875;28;20067;-69
2021/07/25 10:00:10;;;;;;;16.08;9.05;;;;;;;25.58;53.85;100911.47;5074969;28;20060;-70
2021/07/25 10:02:39;;;;;;;15.20;10.40;;;;;;;26.26;50.69;100909.53;5075748;28;20059;-70
2021/07/25 10:05:13;;;;;;;12.25;8.63;;;;;;;26.82;49.13;100915.06;5075460;28;20492;-70
2021/07/25 10:07:40;;;;;;;11.73;7.97;;;;;;;27.64;47.54;100903.84;5075458;28;20055;-70
2021/07/25 10:10:06;;;;;;;9.73;6.45;;;;;;;29.07;42.65;100914.16;5075791;28;20078;-70
2021/07/25 10:12:33;;;;;;;11.10;7.30;;;;;;;29.36;42.43;100915.19;5075012;28;20032;-68
2021/07/25 10:15:00;;;;;;;13.07;6.78;;;;;;;29.52;41.74;100908.66;5075670;28;20031;-70
2021/07/25 10:17:26;;;;;;;11.65;6.93;;;;;;;28.64;41.54;100906.59;5074320;28;20029;-69
2021/07/25 10:19:53;;;;;;;10.35;6.50;;;;;;;28.29;42.32;100907.13;5075139;28;20033;-67
2021/07/25 10:22:20;;;;;;;10.85;7.68;;;;;;;27.67;42.95;100899.06;5074506;28;20043;-69
2021/07/25 10:24:49;;;;;;;9.15;6.22;;;;;;;27.12;45.48;100894.41;5073648;28;20489;-67
2021/07/25 10:27:16;;;;;;;12.35;6.70;;;;;;;27.04;45.90;100897.16;5070633;28;20036;-69
2021/07/25 10:29:42;;;;;;;9.82;7.25;;;;;;;26.81;48.29;100897.06;5073914;28;20098;-66
2021/07/25 10:32:09;;;;;;;14.05;10.98;;;;;;;27.21;47.16;100900.63;5074903;28;20370;-67
2021/07/25 10:34:39;;;;;;;18.20;12.43;;;;;;;28.22;48.00;100897.13;5074538;28;20028;-69
2021/07/25 10:37:05;;;;;;;21.83;14.52;;;;;;;28.33;48.17;100895.88;5074063;28;20094;-68
2021/07/25 10:39:31;;;;;;;23.30;16.48;;;;;;;28.75;47.18;100899.91;5056002;28;20052;-68
2021/07/25 10:42:02;;;;;;;25.23;17.58;;;;;;;29.52;45.57;100898.59;5072350;28;20031;-68
2021/07/25 10:44:28;;;;;;;28.80;20.08;;;;;;;28.67;46.90;100895.38;5071084;28;20037;-68
2021/07/25 10:47:25;;;;;;;26.80;19.83;;;;;;;27.79;48.30;100906.63;5067284;28;20032;-68
2021/07/25 10:50:07;;;;;;;26.15;20.17;;;;;;;26.79;51.55;100904.53;5069780;28;20052;-66
2021/07/25 10:52:55;;;;;;;27.58;19.60;;;;;;;25.85;53.51;100907.59;5065564;28;20020;-66
2021/07/25 10:55:39;;;;;;;25.95;18.88;;;;;;;25.37;54.81;100912.72;5073558;28;20068;-69
2021/07/25 10:58:18;;;;;;;25.92;20.23;;;;;;;24.83;57.38;100924.66;5054870;28;20094;-68
2021/07/25 11:00:55;;;;;;;30.70;21.35;;;;;;;24.59;57.55;100922.63;5073235;28;20025;-68
2021/07/25 11:03:29;;;;;;;28.40;20.40;;;;;;;24.66;56.95;100914.75;5073046;28;20054;-69
2021/07/25 11:06:13;;;;;;;30.60;20.83;;;;;;;24.72;57.16;100915.97;5073444;28;20032;-69
2021/07/25 11:08:43;;;;;;;30.75;20.83;;;;;;;25.17;56.96;100910.28;5070399;28;20036;-67
2021/07/25 11:11:26;;;;;;;27.77;20.50;;;;;;;25.96;54.60;100903.69;5074532;28;20025;-69
2021/07/25 11:13:53;;;;;;;25.85;18.05;;;;;;;27.35;52.29;100903.66;5073899;28;20482;-67